Big Springs, Nebraska
Current Conditions -  °F | °C
As of 6:35 AM on Thursday 30 Oct 2014 (Local Time) from KOGA Reporting Station
Clear Clear  
Wind Chill: 37°   Ceiling: Unl
Heat Index: 43°   Visibility: 10mi
Dew Point: 31°   Wind: 10mph
Humidity: 62%   Direction: 310°NW
Pressure: 30.24"   Gusts: NA
Location:  41.06°N, 102.07°W
Report Text: KOGA 301235Z AUTO 31009KT 10SM CLR 06/M01 A3024 RMK AO2 T00611007
Loading
Personal Weather Stations






























Interactive Weather Map
Tropical Storm Tracking
New forecast layout! Learn more

10-Day Weather Forecast

Advertisements
Track Severe Weather on mobile